createdAt,value
2018-04-14T00:00:08.056Z,9.17
2018-04-14T00:02:36.696Z,11.73
2018-04-14T00:05:05.241Z,8.10
2018-04-14T00:07:33.713Z,12.57
2018-04-14T00:10:02.425Z,10.00
2018-04-14T00:12:31.315Z,12.80
2018-04-14T00:14:59.963Z,16.17
2018-04-14T00:17:28.421Z,12.57
2018-04-14T00:19:56.916Z,20.93
2018-04-14T00:22:26.048Z,17.27
2018-04-14T00:27:29.250Z,16.83
2018-04-14T00:29:58.107Z,16.50
2018-04-14T00:32:26.659Z,12.53
2018-04-14T00:34:55.383Z,11.90
2018-04-14T00:37:23.875Z,10.90
2018-04-14T00:39:52.528Z,9.60
2018-04-14T00:42:21.562Z,16.27
2018-04-14T00:44:50.485Z,12.83
2018-04-14T00:47:19.103Z,16.23
2018-04-14T00:49:47.451Z,15.10
2018-04-14T00:52:16.972Z,16.17
2018-04-14T00:54:45.516Z,18.57
2018-04-14T00:57:14.106Z,17.57
2018-04-14T00:59:42.608Z,15.63
2018-04-14T01:02:11.102Z,21.33
2018-04-14T01:04:39.554Z,20.23
2018-04-14T01:07:08.110Z,18.50
2018-04-14T01:09:36.621Z,24.03
2018-04-14T01:12:05.523Z,22.97
2018-04-14T01:14:33.943Z,25.13
2018-04-14T01:17:02.632Z,26.90
2018-04-14T01:19:31.168Z,27.30
2018-04-14T01:21:59.880Z,27.80
2018-04-14T01:24:28.412Z,25.60
2018-04-14T01:26:56.972Z,22.47
2018-04-14T01:29:25.495Z,27.23
2018-04-14T01:31:53.916Z,25.57
2018-04-14T01:34:22.410Z,26.10
2018-04-14T01:36:51.251Z,28.23
2018-04-14T01:39:19.713Z,23.53
2018-04-14T01:41:48.359Z,23.70
2018-04-14T01:44:17.086Z,31.00
2018-04-14T01:46:45.546Z,27.40
2018-04-14T01:49:14.162Z,24.50
2018-04-14T01:51:42.803Z,25.30
2018-04-14T01:54:11.311Z,24.33
2018-04-14T01:56:39.758Z,26.90
2018-04-14T01:59:08.228Z,29.17
2018-04-14T02:01:36.952Z,27.57
2018-04-14T02:04:05.626Z,28.90
2018-04-14T02:06:40.515Z,29.07
2018-04-14T02:09:09.295Z,29.77
2018-04-14T02:11:37.920Z,32.70
2018-04-14T02:14:06.894Z,31.13
2018-04-14T02:16:35.640Z,29.20
2018-04-14T02:19:04.341Z,31.47
2018-04-14T02:21:36.317Z,32.57
2018-04-14T02:24:04.795Z,29.23
2018-04-14T02:26:33.470Z,31.93
2018-04-14T02:29:02.325Z,33.73
2018-04-14T02:31:30.786Z,36.10
2018-04-14T02:35:02.634Z,37.80
2018-04-14T02:37:31.276Z,31.00
2018-04-14T02:39:59.800Z,34.00
2018-04-14T02:42:28.409Z,37.47
2018-04-14T02:44:56.880Z,38.43
2018-04-14T02:47:25.358Z,37.07
2018-04-14T02:49:53.768Z,37.40
2018-04-14T02:52:22.363Z,40.33
2018-04-14T02:54:50.986Z,40.33
2018-04-14T02:57:19.503Z,38.83
2018-04-14T02:59:47.964Z,39.00
2018-04-14T03:02:16.724Z,38.53
2018-04-14T03:04:45.331Z,40.70
2018-04-14T03:07:14.073Z,44.87
2018-04-14T03:09:42.676Z,41.67
2018-04-14T03:12:11.616Z,43.57
2018-04-14T03:14:40.280Z,43.10
2018-04-14T03:17:08.959Z,43.70
2018-04-14T03:19:37.543Z,35.27
2018-04-14T03:23:09.224Z,35.60
2018-04-14T03:25:37.788Z,36.70
2018-04-14T03:28:06.451Z,42.77
2018-04-14T03:30:35.292Z,44.33
2018-04-14T03:33:03.724Z,49.30
2018-04-14T03:35:32.225Z,57.90
2018-04-14T03:38:00.721Z,49.50
2018-04-14T03:40:29.659Z,51.23
2018-04-14T03:42:58.423Z,51.10
2018-04-14T03:45:26.978Z,53.40
2018-04-14T03:47:55.666Z,62.33
2018-04-14T03:50:24.159Z,61.70
2018-04-14T03:52:52.626Z,56.37
2018-04-14T03:55:21.414Z,58.43
2018-04-14T03:57:49.985Z,59.53
2018-04-14T04:03:14.051Z,57.87
2018-04-14T04:05:42.572Z,42.90
2018-04-14T04:08:10.961Z,42.17
2018-04-14T04:10:39.307Z,46.03
2018-04-14T04:13:07.639Z,46.70
2018-04-14T04:15:35.977Z,44.33
2018-04-14T04:18:04.263Z,44.00
2018-04-14T04:20:41.546Z,43.67
2018-04-14T04:25:22.134Z,55.27
2018-04-14T04:27:50.605Z,51.20
2018-04-14T04:30:18.964Z,62.77
2018-04-14T04:32:47.412Z,65.27
2018-04-14T04:35:16.249Z,62.83
2018-04-14T04:37:44.580Z,67.07
2018-04-14T04:40:12.967Z,75.60
2018-04-14T04:42:41.285Z,82.90
2018-04-14T04:45:09.608Z,82.07
2018-04-14T04:47:37.918Z,81.97
2018-04-14T04:50:06.239Z,100.50
2018-04-14T04:52:34.713Z,99.10
2018-04-14T04:55:03.079Z,93.50
2018-04-14T04:57:31.412Z,101.10
2018-04-14T05:00:00.016Z,94.70
2018-04-14T05:02:28.339Z,96.77
2018-04-14T05:04:56.627Z,92.63
2018-04-14T05:07:28.005Z,102.33
2018-04-14T05:09:56.306Z,109.50
2018-04-14T05:12:24.636Z,104.57
2018-04-14T05:14:53.039Z,104.00
2018-04-14T05:17:21.556Z,120.80
2018-04-14T05:19:49.980Z,119.33
2018-04-14T05:22:18.294Z,103.17
2018-04-14T05:24:46.743Z,95.70
2018-04-14T05:27:15.147Z,89.53
2018-04-14T05:29:43.680Z,91.87
2018-04-14T05:32:12.004Z,84.20
2018-04-14T05:34:40.452Z,76.17
2018-04-14T05:37:08.785Z,90.57
2018-04-14T05:39:37.240Z,75.47
2018-04-14T05:42:05.748Z,85.20
2018-04-14T05:44:34.077Z,77.23
2018-04-14T05:47:02.495Z,76.20
2018-04-14T05:49:30.979Z,72.43
2018-04-14T05:51:59.356Z,86.97
2018-04-14T05:54:27.644Z,73.50
2018-04-14T05:56:55.987Z,93.90
2018-04-14T05:59:24.287Z,80.97
2018-04-14T06:01:52.768Z,90.83
2018-04-14T06:04:21.081Z,78.00
2018-04-14T06:06:49.515Z,81.93
2018-04-14T06:09:17.844Z,91.40
2018-04-14T06:11:46.172Z,90.57
2018-04-14T06:14:14.576Z,84.17
2018-04-14T06:16:42.949Z,83.67
2018-04-14T06:19:11.289Z,81.23
2018-04-14T06:21:39.707Z,85.10
2018-04-14T06:24:08.144Z,93.17
2018-04-14T06:26:36.455Z,94.00
2018-04-14T06:29:04.770Z,92.90
2018-04-14T06:31:33.092Z,88.97
2018-04-14T06:34:01.428Z,91.53
2018-04-14T06:36:29.760Z,92.90
2018-04-14T06:38:58.078Z,97.73
2018-04-14T06:41:26.400Z,94.53
2018-04-14T06:43:54.720Z,100.43
2018-04-14T06:46:23.100Z,103.33
2018-04-14T06:48:51.652Z,110.43
2018-04-14T06:51:20.555Z,108.27
2018-04-14T06:53:48.976Z,112.07
2018-04-14T06:56:17.341Z,112.00
2018-04-14T06:58:51.242Z,130.37
2018-04-14T07:01:21.982Z,121.00
2018-04-14T07:03:50.920Z,115.93
2018-04-14T07:06:19.980Z,128.17
2018-04-14T07:08:48.330Z,125.23
2018-04-14T07:11:17.229Z,122.90
2018-04-14T07:13:45.547Z,128.60
2018-04-14T07:16:13.967Z,120.80
2018-04-14T07:18:42.404Z,121.00
2018-04-14T07:21:10.944Z,132.40
2018-04-14T07:23:39.259Z,126.30
2018-04-14T07:26:07.749Z,118.97
2018-04-14T07:28:36.167Z,113.70
2018-04-14T07:31:04.569Z,120.13
2018-04-14T07:33:32.917Z,131.17
2018-04-14T07:36:01.439Z,122.83
2018-04-14T07:38:29.753Z,120.03
2018-04-14T07:40:59.065Z,120.20
2018-04-14T07:43:27.774Z,123.27
2018-04-14T07:45:56.128Z,124.57
2018-04-14T07:48:24.774Z,120.07
2018-04-14T07:50:53.803Z,120.33
2018-04-14T07:53:22.079Z,126.20
2018-04-14T07:55:50.411Z,124.57
2018-04-14T07:58:18.747Z,128.07
2018-04-14T08:00:47.139Z,132.33
2018-04-14T08:03:15.819Z,131.27
2018-04-14T08:05:44.141Z,133.50
2018-04-14T08:08:12.666Z,129.13
2018-04-14T08:10:41.056Z,141.43
2018-04-14T08:13:09.488Z,123.67
2018-04-14T08:15:37.936Z,129.87
2018-04-14T08:18:06.268Z,133.30
2018-04-14T08:20:34.575Z,116.97
2018-04-14T08:23:02.875Z,119.47
2018-04-14T08:25:31.992Z,131.53
2018-04-14T08:28:00.384Z,119.17
2018-04-14T08:30:28.777Z,114.57
2018-04-14T08:32:57.192Z,122.60
2018-04-14T08:35:25.697Z,114.03
2018-04-14T08:37:54.072Z,114.33
2018-04-14T08:40:22.392Z,114.67
2018-04-14T08:42:50.792Z,110.87
2018-04-14T08:45:19.456Z,99.13
2018-04-14T08:47:47.933Z,100.30
2018-04-14T08:50:16.447Z,101.00
2018-04-14T08:52:44.737Z,102.97
2018-04-14T08:55:13.388Z,95.73
2018-04-14T08:57:41.697Z,95.03
2018-04-14T09:00:10.087Z,89.67
2018-04-14T09:02:38.431Z,90.60
2018-04-14T09:05:06.793Z,85.50
2018-04-14T09:07:35.101Z,90.50
2018-04-14T09:10:03.467Z,83.40
2018-04-14T09:12:31.832Z,83.40
2018-04-14T09:15:03.315Z,82.33
2018-04-14T09:17:32.217Z,81.43
2018-04-14T09:20:00.779Z,79.97
2018-04-14T09:22:29.199Z,74.97
2018-04-14T09:24:57.704Z,76.30
2018-04-14T09:27:26.022Z,74.87
2018-04-14T09:29:54.296Z,75.63
2018-04-14T09:32:22.673Z,72.30
2018-04-14T09:34:54.548Z,69.83
2018-04-14T09:37:25.740Z,64.80
2018-04-14T09:39:55.127Z,69.67
2018-04-14T09:42:26.500Z,63.67
2018-04-14T09:44:54.794Z,63.83
2018-04-14T09:47:23.218Z,54.90
2018-04-14T09:49:51.833Z,59.67
2018-04-14T09:52:20.167Z,56.13
2018-04-14T09:54:49.158Z,57.17
2018-04-14T09:57:17.540Z,56.87
2018-04-14T09:59:45.827Z,53.80
2018-04-14T10:02:14.211Z,57.87
2018-04-14T10:04:42.521Z,54.07
2018-04-14T10:07:11.954Z,51.00
2018-04-14T10:09:40.297Z,53.23
2018-04-14T10:12:08.615Z,56.73
2018-04-14T10:14:36.978Z,53.40
2018-04-14T10:17:05.474Z,52.43
2018-04-14T10:19:34.859Z,48.63
2018-04-14T10:22:03.332Z,49.10
2018-04-14T10:24:31.662Z,54.27
2018-04-14T10:27:00.067Z,46.07
2018-04-14T10:29:28.405Z,47.60
2018-04-14T10:31:56.729Z,47.17
2018-04-14T10:34:25.771Z,48.80
2018-04-14T10:36:54.444Z,41.63
2018-04-14T10:39:23.734Z,47.27
2018-04-14T10:41:52.641Z,48.10
2018-04-14T10:44:21.005Z,44.43
2018-04-14T10:46:49.339Z,52.80
2018-04-14T10:49:17.832Z,49.83
2018-04-14T10:51:46.607Z,43.77
2018-04-14T10:54:16.776Z,46.70
2018-04-14T10:56:45.235Z,43.73
2018-04-14T10:59:13.537Z,42.67
2018-04-14T11:01:42.027Z,44.03
2018-04-14T11:04:10.327Z,41.67
2018-04-14T11:06:38.977Z,45.87
2018-04-14T11:09:07.512Z,39.00
2018-04-14T11:11:35.863Z,42.77
2018-04-14T11:14:04.207Z,43.90
2018-04-14T11:16:32.532Z,40.10
2018-04-14T11:19:00.864Z,44.03
2018-04-14T11:21:29.336Z,48.23
2018-04-14T11:23:57.740Z,47.60
2018-04-14T11:26:26.175Z,43.40
2018-04-14T11:28:54.461Z,39.20
2018-04-14T11:31:22.896Z,40.23
2018-04-14T11:33:51.179Z,43.10
2018-04-14T11:36:19.599Z,42.87
2018-04-14T11:38:48.179Z,41.07
2018-04-14T11:41:16.545Z,40.07
2018-04-14T11:43:44.888Z,40.33
2018-04-14T11:46:13.268Z,40.47
2018-04-14T11:48:41.779Z,41.57
2018-04-14T11:51:10.167Z,43.17
2018-04-14T11:53:38.565Z,44.47
2018-04-14T11:56:06.931Z,43.50
2018-04-14T11:58:35.307Z,54.97
2018-04-14T12:01:03.640Z,49.40
2018-04-14T12:03:32.080Z,50.20
2018-04-14T12:06:00.509Z,56.03
2018-04-14T12:08:29.132Z,65.90
2018-04-14T12:10:57.653Z,60.60
2018-04-14T12:13:26.251Z,68.67
2018-04-14T12:15:54.694Z,76.20
2018-04-14T12:18:23.182Z,70.60
2018-04-14T12:20:51.643Z,70.57
2018-04-14T12:23:20.323Z,74.10
2018-04-14T12:25:48.631Z,76.67
2018-04-14T12:28:16.941Z,73.83
2018-04-14T12:30:45.296Z,69.30
2018-04-14T12:33:13.843Z,71.93
2018-04-14T12:35:42.363Z,69.90
2018-04-14T12:38:10.807Z,66.47
2018-04-14T12:40:39.195Z,67.13
2018-04-14T12:43:07.616Z,68.43
2018-04-14T12:45:35.924Z,70.27
2018-04-14T12:48:04.296Z,70.90
2018-04-14T12:50:32.608Z,69.33
2018-04-14T12:53:01.097Z,67.47
2018-04-14T12:55:29.511Z,67.77
2018-04-14T12:57:57.860Z,67.43
2018-04-14T13:00:26.344Z,58.50
2018-04-14T13:02:54.764Z,59.90
2018-04-14T13:05:23.166Z,59.07
2018-04-14T13:07:51.535Z,62.43
2018-04-14T13:10:19.914Z,55.90
2018-04-14T13:12:48.553Z,55.70
2018-04-14T13:15:17.004Z,58.37
2018-04-14T13:17:45.560Z,60.10
2018-04-14T13:20:13.881Z,47.17
2018-04-14T13:22:42.183Z,50.10
2018-04-14T13:25:10.573Z,54.40
2018-04-14T13:27:38.898Z,49.17
2018-04-14T13:30:07.447Z,44.97
2018-04-14T13:32:35.761Z,43.17
2018-04-14T13:35:04.110Z,38.23
2018-04-14T13:37:32.534Z,39.30
2018-04-14T13:40:01.052Z,37.87
2018-04-14T13:42:29.460Z,35.97
2018-04-14T13:44:57.803Z,36.77
2018-04-14T13:47:26.210Z,36.67
2018-04-14T13:49:54.531Z,34.67
2018-04-14T13:52:22.894Z,36.10
2018-04-14T13:54:51.524Z,35.80
2018-04-14T13:57:19.995Z,32.07
2018-04-14T13:59:48.358Z,29.23
2018-04-14T14:02:16.729Z,35.37
2018-04-14T14:04:45.744Z,31.07
2018-04-14T14:07:14.117Z,32.73
2018-04-14T14:09:42.407Z,29.83
2018-04-14T14:12:10.763Z,32.93
2018-04-14T14:14:39.052Z,32.73
2018-04-14T14:17:07.598Z,29.40
2018-04-14T14:19:36.078Z,30.90
2018-04-14T14:22:04.620Z,29.17
2018-04-14T14:24:32.915Z,29.43
2018-04-14T14:27:01.312Z,29.73
2018-04-14T14:29:29.709Z,30.63
2018-04-14T14:31:58.076Z,32.33
2018-04-14T14:34:26.356Z,33.70
2018-04-14T14:36:54.822Z,37.80
2018-04-14T14:39:23.112Z,37.80
2018-04-14T14:41:51.751Z,36.30
2018-04-14T14:44:20.264Z,37.63
2018-04-14T14:46:48.757Z,57.77
2018-04-14T14:49:17.111Z,55.20
2018-04-14T14:51:45.739Z,65.70
2018-04-14T14:54:15.968Z,57.20
2018-04-14T14:56:44.468Z,57.33
2018-04-14T14:59:12.886Z,61.27
2018-04-14T15:01:42.492Z,63.77
2018-04-14T15:04:11.200Z,60.60
2018-04-14T15:06:40.125Z,57.23
2018-04-14T15:09:08.540Z,58.83
2018-04-14T15:11:36.895Z,59.43
2018-04-14T15:14:05.227Z,53.73
2018-04-14T15:16:33.620Z,54.93
2018-04-14T15:19:01.906Z,62.30
2018-04-14T15:21:30.351Z,48.30
2018-04-14T15:23:58.805Z,56.27
2018-04-14T15:26:27.149Z,48.87
2018-04-14T15:28:55.443Z,50.77
2018-04-14T15:31:23.908Z,50.00
2018-04-14T15:33:52.307Z,54.43
2018-04-14T15:36:21.716Z,47.20
2018-04-14T15:38:50.202Z,51.53
2018-04-14T15:41:18.523Z,53.80
2018-04-14T15:43:46.846Z,48.43
2018-04-14T15:46:15.199Z,44.87
2018-04-14T15:48:44.766Z,44.63
2018-04-14T15:51:14.384Z,42.10
2018-04-14T15:53:43.560Z,59.97
2018-04-14T15:56:12.366Z,47.37
2018-04-14T15:58:40.663Z,41.73
2018-04-14T16:01:08.980Z,50.17
2018-04-14T16:03:44.723Z,49.03
2018-04-14T16:06:07.083Z,48.70
2018-04-14T16:08:35.400Z,59.53
2018-04-14T16:11:03.872Z,50.37
2018-04-14T16:13:32.323Z,54.20
2018-04-14T16:16:00.916Z,57.13
2018-04-14T16:18:29.276Z,61.27
2018-04-14T16:21:04.267Z,55.90
2018-04-14T16:23:32.597Z,56.73
2018-04-14T16:26:01.090Z,63.17
2018-04-14T16:28:29.915Z,60.33
2018-04-14T16:30:58.231Z,53.33
2018-04-14T16:33:26.563Z,56.60
2018-04-14T16:35:54.897Z,55.83
2018-04-14T16:38:23.313Z,51.33
2018-04-14T16:40:51.656Z,49.30
2018-04-14T16:43:20.048Z,50.93
2018-04-14T16:45:48.412Z,53.43
2018-04-14T16:48:16.789Z,45.10
2018-04-14T16:50:45.248Z,47.90
2018-04-14T16:53:13.576Z,50.40
2018-04-14T16:55:42.068Z,45.13
2018-04-14T16:58:10.355Z,45.97
2018-04-14T17:00:38.827Z,49.93
2018-04-14T17:03:07.400Z,47.03
2018-04-14T17:05:35.843Z,48.67
2018-04-14T17:08:04.227Z,48.50
2018-04-14T17:10:32.591Z,48.10
2018-04-14T17:13:00.879Z,41.77
2018-04-14T17:15:29.201Z,47.40
2018-04-14T17:17:57.487Z,46.10
2018-04-14T17:20:25.891Z,47.90
2018-04-14T17:22:54.177Z,40.60
2018-04-14T17:25:22.536Z,43.87
2018-04-14T17:27:51.164Z,46.87
2018-04-14T17:30:19.483Z,46.47
2018-04-14T17:32:47.821Z,41.43
2018-04-14T17:35:16.156Z,45.57
2018-04-14T17:37:44.451Z,41.23
2018-04-14T17:40:12.843Z,45.53
2018-04-14T17:42:41.335Z,45.70
2018-04-14T17:45:09.668Z,47.03
2018-04-14T17:47:38.015Z,49.20
2018-04-14T17:50:06.392Z,57.37
2018-04-14T17:52:34.939Z,39.67
2018-04-14T17:55:05.091Z,45.10
2018-04-14T17:57:33.467Z,47.17
2018-04-14T18:00:01.767Z,41.47
2018-04-14T18:02:30.121Z,44.07
2018-04-14T18:05:04.083Z,47.30
2018-04-14T18:07:33.048Z,49.70
2018-04-14T18:10:01.315Z,48.43
2018-04-14T18:12:29.680Z,47.00
2018-04-14T18:14:57.971Z,57.83
2018-04-14T18:17:26.623Z,69.17
2018-04-14T18:19:54.915Z,71.43
2018-04-14T18:22:24.433Z,79.60
2018-04-14T18:24:52.823Z,60.80
2018-04-14T18:27:21.160Z,72.07
2018-04-14T18:29:49.447Z,72.67
2018-04-14T18:32:17.781Z,77.00
2018-04-14T18:34:46.208Z,87.57
2018-04-14T18:37:14.903Z,96.70
2018-04-14T18:39:44.250Z,86.20
2018-04-14T18:42:12.923Z,84.33
2018-04-14T18:44:41.267Z,82.60
2018-04-14T18:47:10.493Z,79.63
2018-04-14T18:49:39.032Z,83.17
2018-04-14T18:52:08.267Z,78.97
2018-04-14T18:54:36.738Z,74.83
2018-04-14T18:57:05.113Z,72.83
2018-04-14T18:59:33.431Z,80.13
2018-04-14T19:02:01.815Z,78.57
2018-04-14T19:04:30.112Z,81.50
2018-04-14T19:06:58.520Z,64.23
2018-04-14T19:09:26.991Z,73.57
2018-04-14T19:11:55.355Z,69.43
2018-04-14T19:14:23.716Z,72.70
2018-04-14T19:16:52.230Z,68.87
2018-04-14T19:19:20.723Z,67.23
2018-04-14T19:21:49.084Z,70.17
2018-04-14T19:24:17.448Z,71.90
2018-04-14T19:26:45.973Z,63.10
2018-04-14T19:29:14.340Z,61.90
2018-04-14T19:31:42.689Z,70.30
2018-04-14T19:34:10.978Z,65.60
2018-04-14T19:36:39.347Z,67.40
2018-04-14T19:39:07.628Z,55.10
2018-04-14T19:41:36.032Z,63.00
2018-04-14T19:44:04.346Z,58.17
2018-04-14T19:46:32.959Z,65.00
2018-04-14T19:49:01.267Z,57.57
2018-04-14T19:51:29.642Z,70.10
2018-04-14T19:53:59.896Z,69.27
2018-04-14T19:56:30.348Z,67.07
2018-04-14T19:58:58.889Z,66.37
2018-04-14T20:01:27.340Z,71.93
2018-04-14T20:03:55.787Z,79.97
2018-04-14T20:06:24.235Z,65.30
2018-04-14T20:08:52.559Z,57.93
2018-04-14T20:11:21.999Z,68.27
2018-04-14T20:13:50.339Z,69.50
2018-04-14T20:16:18.839Z,67.97
2018-04-14T20:18:47.339Z,65.87
2018-04-14T20:21:15.707Z,66.53
2018-04-14T20:23:44.406Z,87.33
2018-04-14T20:26:12.892Z,95.23
2018-04-14T20:28:41.303Z,89.43
2018-04-14T20:31:09.733Z,66.63
2018-04-14T20:33:38.031Z,76.80
2018-04-14T20:36:06.425Z,71.13
2018-04-14T20:38:34.773Z,92.90
2018-04-14T20:41:03.125Z,87.13
2018-04-14T20:43:31.979Z,90.67
2018-04-14T20:46:00.308Z,75.90
2018-04-14T20:48:28.663Z,91.70
2018-04-14T20:50:57.006Z,91.90
2018-04-14T20:53:25.369Z,84.13
2018-04-14T20:55:53.784Z,81.47
2018-04-14T20:58:22.160Z,86.97
2018-04-14T21:00:50.487Z,108.67
2018-04-14T21:03:18.825Z,90.37
2018-04-14T21:05:47.355Z,76.47
2018-04-14T21:08:15.703Z,93.43
2018-04-14T21:10:44.114Z,81.93
2018-04-14T21:13:12.502Z,97.20
2018-04-14T21:15:40.851Z,95.33
2018-04-14T21:18:09.195Z,85.70
2018-04-14T21:20:37.531Z,95.30
2018-04-14T21:23:05.919Z,94.80
2018-04-14T21:25:35.817Z,87.13
2018-04-14T21:28:06.449Z,92.53
2018-04-14T21:30:37.420Z,89.93
2018-04-14T21:33:05.931Z,96.27
2018-04-14T21:35:35.469Z,98.77
2018-04-14T21:38:04.536Z,89.87
2018-04-14T21:40:32.849Z,96.53
2018-04-14T21:43:01.505Z,102.70
2018-04-14T21:45:30.183Z,104.87
2018-04-14T21:48:00.503Z,77.90
2018-04-14T21:50:29.287Z,82.47
2018-04-14T21:53:00.788Z,80.50
2018-04-14T21:55:31.212Z,88.00
2018-04-14T21:57:59.880Z,100.77
2018-04-14T22:00:28.331Z,100.27
2018-04-14T22:02:57.398Z,110.43
2018-04-14T22:05:26.328Z,84.37
2018-04-14T22:07:54.690Z,92.57
2018-04-14T22:10:26.069Z,106.20
2018-04-14T22:12:57.724Z,94.73
2018-04-14T22:15:26.171Z,85.63
2018-04-14T22:17:54.660Z,109.63
2018-04-14T22:20:23.041Z,101.87
2018-04-14T22:22:51.534Z,106.20
2018-04-14T22:25:19.950Z,102.57
2018-04-14T22:27:48.330Z,110.20
2018-04-14T22:30:16.832Z,109.47
2018-04-14T22:32:45.242Z,91.07
2018-04-14T22:35:13.649Z,89.27
2018-04-14T22:37:42.066Z,95.23
2018-04-14T22:40:10.416Z,106.50
2018-04-14T22:42:38.785Z,93.67
2018-04-14T22:45:07.192Z,108.00
2018-04-14T22:47:35.540Z,86.10
2018-04-14T22:50:03.876Z,99.97
2018-04-14T22:52:32.185Z,101.70
2018-04-14T22:55:00.495Z,82.27
2018-04-14T22:57:59.964Z,86.97
2018-04-14T23:00:28.636Z,116.10
2018-04-14T23:02:57.226Z,105.77
2018-04-14T23:05:25.588Z,96.53
2018-04-14T23:07:53.941Z,115.10
2018-04-14T23:10:22.572Z,100.13
2018-04-14T23:12:50.998Z,97.27
2018-04-14T23:15:19.368Z,97.13
2018-04-14T23:17:47.669Z,104.53
2018-04-14T23:20:16.296Z,92.87
2018-04-14T23:22:44.588Z,105.67
2018-04-14T23:25:13.007Z,96.73
2018-04-14T23:27:41.380Z,92.10
2018-04-14T23:30:10.125Z,99.53
2018-04-14T23:32:38.503Z,120.07
2018-04-14T23:35:06.920Z,108.20
2018-04-14T23:37:35.342Z,87.30
2018-04-14T23:40:03.892Z,104.53
2018-04-14T23:42:32.287Z,137.20
2018-04-14T23:45:00.632Z,105.73
2018-04-14T23:47:29.356Z,116.73
2018-04-14T23:49:57.691Z,131.67
2018-04-14T23:52:26.472Z,146.27
2018-04-14T23:54:54.871Z,101.57
2018-04-14T23:57:23.448Z,103.63
2018-04-14T23:59:51.805Z,115.20
